createdAt,value
2018-04-28T00:01:11.517Z,97390.12
2018-04-28T00:03:39.156Z,97395.16
2018-04-28T00:06:06.751Z,97398.05
2018-04-28T00:08:36.142Z,97401.38
2018-04-28T00:11:03.763Z,97399.94
2018-04-28T00:13:32.152Z,97401.09
2018-04-28T00:16:14.646Z,97401.22
2018-04-28T00:18:46.029Z,97399.69
2018-04-28T00:21:13.666Z,97408.78
2018-04-28T00:23:46.777Z,97413.94
2018-04-28T00:26:14.739Z,97414.46
2018-04-28T00:28:45.010Z,97410.13
2018-04-28T00:31:21.541Z,97414.84
2018-04-28T00:33:50.705Z,97413.05
2018-04-28T00:39:23.617Z,97421.05
2018-04-28T00:41:52.028Z,97418.06
2018-04-28T00:44:21.443Z,97422.00
2018-04-28T00:50:04.926Z,97430.86
2018-04-28T00:52:32.815Z,97434.14
2018-04-28T00:55:03.076Z,97429.91
2018-04-28T01:00:54.581Z,97433.83
2018-04-28T01:03:25.072Z,97439.09
2018-04-28T01:05:53.475Z,97433.44
2018-04-28T01:08:26.013Z,97434.71
2018-04-28T01:13:59.465Z,97440.55
2018-04-28T01:16:27.068Z,97447.19
2018-04-28T01:18:56.314Z,97451.72
2018-04-28T01:21:44.423Z,97447.94
2018-04-28T01:24:17.700Z,97455.05
2018-04-28T01:27:05.958Z,97455.45
2018-04-28T01:29:37.254Z,97455.34
2018-04-28T01:32:09.711Z,97460.95
2018-04-28T01:34:41.704Z,97457.34
2018-04-28T01:40:12.445Z,97472.38
2018-04-28T01:42:48.628Z,97469.59
2018-04-28T01:45:17.943Z,97473.69
2018-04-28T01:50:54.974Z,97477.19
2018-04-28T01:53:28.507Z,97478.44
2018-04-28T01:59:08.191Z,97483.42
2018-04-28T02:01:38.561Z,97484.33
2018-04-28T02:04:07.237Z,97483.25
2018-04-28T02:06:58.319Z,97485.17
2018-04-28T02:09:25.954Z,97490.95
2018-04-28T02:11:54.396Z,97501.18
2018-04-28T02:14:53.590Z,97505.03
2018-04-28T02:17:21.179Z,97506.81
2018-04-28T02:23:15.366Z,97506.23
2018-04-28T02:25:59.702Z,97508.80
2018-04-28T02:28:33.006Z,97510.48
2018-04-28T02:31:01.694Z,97522.02
2018-04-28T02:33:29.959Z,97517.80
2018-04-28T02:38:59.910Z,97526.98
2018-04-28T02:41:37.419Z,97526.36
2018-04-28T02:44:05.879Z,97533.63
2018-04-28T02:46:38.161Z,97533.13
2018-04-28T02:49:16.124Z,97530.59
2018-04-28T02:51:47.141Z,97538.53
2018-04-28T02:54:17.398Z,97540.80
2018-04-28T02:56:55.233Z,97534.08
2018-04-28T02:59:26.590Z,97536.91
2018-04-28T03:05:17.067Z,97542.87
2018-04-28T03:10:46.066Z,97536.53
2018-04-28T03:13:24.721Z,97544.91
2018-04-28T03:15:56.861Z,97541.45
2018-04-28T03:18:25.594Z,97539.93
2018-04-28T03:20:56.061Z,97544.59
2018-04-28T03:23:25.466Z,97546.94
2018-04-28T03:25:56.707Z,97549.92
2018-04-28T03:28:42.242Z,97552.19
2018-04-28T03:34:23.145Z,97559.42
2018-04-28T03:39:55.629Z,97568.45
2018-04-28T03:45:39.390Z,97567.31
2018-04-28T03:48:15.810Z,97569.18
2018-04-28T03:50:57.364Z,97563.56
2018-04-28T03:53:43.522Z,97570.47
2018-04-28T03:56:14.131Z,97572.89
2018-04-28T03:58:53.480Z,97578.34
2018-04-28T04:01:33.121Z,97583.88
2018-04-28T04:07:37.597Z,97590.95
2018-04-28T04:10:05.192Z,97602.92
2018-04-28T04:12:45.606Z,97596.55
2018-04-28T04:18:17.078Z,97596.88
2018-04-28T04:20:52.478Z,97610.75
2018-04-28T04:23:26.025Z,97608.53
2018-04-28T04:29:21.350Z,97608.20
2018-04-28T04:35:14.962Z,97617.78
2018-04-28T04:41:01.371Z,97626.67
2018-04-28T04:43:36.633Z,97631.92
2018-04-28T04:46:07.926Z,97638.97
2018-04-28T04:48:38.931Z,97636.70
2018-04-28T04:51:07.393Z,97644.41
2018-04-28T04:53:41.805Z,97648.48
2018-04-28T04:59:22.322Z,97651.70
2018-04-28T05:04:51.532Z,97659.88
2018-04-28T05:10:59.576Z,97662.53
2018-04-28T05:13:46.891Z,97665.39
2018-04-28T05:16:29.309Z,97667.18
2018-04-28T05:19:01.666Z,97670.39
2018-04-28T05:21:44.149Z,97667.64
2018-04-28T05:30:49.986Z,97688.30
2018-04-28T05:33:40.297Z,97680.36
2018-04-28T05:39:35.086Z,97690.30
2018-04-28T05:42:27.172Z,97691.41
2018-04-28T05:45:00.507Z,97686.73
2018-04-28T05:47:29.779Z,97690.02
2018-04-28T05:53:13.947Z,97702.62
2018-04-28T05:59:23.304Z,97708.40
2018-04-28T06:05:14.871Z,97713.77
2018-04-28T06:11:05.298Z,97714.70
2018-04-28T06:13:53.550Z,97717.05
2018-04-28T06:16:30.705Z,97722.02
2018-04-28T06:19:08.290Z,97726.89
2018-04-28T06:21:35.882Z,97722.12
2018-04-28T06:24:03.572Z,97721.61
2018-04-28T06:26:31.160Z,97724.59
2018-04-28T06:28:59.023Z,97728.38
2018-04-28T06:31:26.621Z,97731.35
2018-04-28T06:33:54.236Z,97725.85
2018-04-28T06:36:21.847Z,97718.73
2018-04-28T06:38:49.454Z,97718.67
2018-04-28T06:41:17.093Z,97716.89
2018-04-28T06:43:44.691Z,97722.80
2018-04-28T06:46:12.425Z,97723.69
2018-04-28T06:48:40.022Z,97726.95
2018-04-28T06:51:07.669Z,97722.81
2018-04-28T06:53:35.243Z,97724.48
2018-04-28T06:56:02.843Z,97727.86
2018-04-28T06:58:30.512Z,97726.73
2018-04-28T07:00:58.142Z,97730.31
2018-04-28T07:03:25.961Z,97729.89
2018-04-28T07:05:53.551Z,97729.66
2018-04-28T07:08:21.147Z,97729.42
2018-04-28T07:10:48.790Z,97730.78
2018-04-28T07:13:16.387Z,97730.86
2018-04-28T07:15:43.999Z,97732.58
2018-04-28T07:18:11.602Z,97731.49
2018-04-28T07:20:39.195Z,97737.34
2018-04-28T07:23:06.822Z,97736.20
2018-04-28T07:25:34.609Z,97732.20
2018-04-28T07:28:02.239Z,97727.66
2018-04-28T07:30:29.865Z,97726.53
2018-04-28T07:32:57.492Z,97736.72
2018-04-28T07:35:25.262Z,97729.81
2018-04-28T07:37:52.864Z,97740.13
2018-04-28T07:40:20.452Z,97735.28
2018-04-28T07:42:48.066Z,97741.59
2018-04-28T07:45:15.654Z,97729.31
2018-04-28T07:47:43.313Z,97731.59
2018-04-28T07:50:10.908Z,97731.96
2018-04-28T07:52:38.547Z,97729.94
2018-04-28T07:55:06.153Z,97720.45
2018-04-28T07:57:33.771Z,97724.84
2018-04-28T08:00:01.429Z,97722.18
2018-04-28T08:02:29.088Z,97722.44
2018-04-28T08:04:56.685Z,97724.18
2018-04-28T08:07:24.358Z,97715.73
2018-04-28T08:09:51.967Z,97724.34
2018-04-28T08:12:19.554Z,97729.83
2018-04-28T08:14:47.167Z,97723.78
2018-04-28T08:17:14.781Z,97719.27
2018-04-28T08:19:42.614Z,97727.48
2018-04-28T08:22:10.227Z,97725.47
2018-04-28T08:24:37.936Z,97731.19
2018-04-28T08:27:05.539Z,97736.49
2018-04-28T08:29:33.140Z,97736.70
2018-04-28T08:32:00.750Z,97733.77
2018-04-28T08:34:28.347Z,97727.28
2018-04-28T08:36:56.043Z,97730.83
2018-04-28T08:39:23.565Z,97738.86
2018-04-28T08:41:51.179Z,97735.08
2018-04-28T08:44:18.779Z,97735.55
2018-04-28T08:46:46.382Z,97737.40
2018-04-28T08:49:13.995Z,97732.70
2018-04-28T08:51:41.605Z,97731.38
2018-04-28T08:54:09.214Z,97735.68
2018-04-28T08:56:36.836Z,97735.61
2018-04-28T08:59:04.612Z,97745.87
2018-04-28T09:01:32.212Z,97742.70
2018-04-28T09:03:59.991Z,97744.03
2018-04-28T09:06:27.583Z,97737.44
2018-04-28T09:08:55.178Z,97739.41
2018-04-28T09:11:22.794Z,97742.47
2018-04-28T09:13:50.394Z,97747.42
2018-04-28T09:16:18.011Z,97737.91
2018-04-28T09:18:45.614Z,97736.16
2018-04-28T09:21:13.252Z,97737.70
2018-04-28T09:23:40.859Z,97736.33
2018-04-28T09:26:08.454Z,97740.89
2018-04-28T09:28:36.063Z,97732.13
2018-04-28T09:31:03.660Z,97728.92
2018-04-28T09:33:31.272Z,97730.44
2018-04-28T09:35:58.863Z,97725.95
2018-04-28T09:38:26.486Z,97725.88
2018-04-28T09:40:54.075Z,97718.02
2018-04-28T09:43:21.695Z,97709.57
2018-04-28T09:45:49.299Z,97708.12
2018-04-28T09:48:16.933Z,97705.22
2018-04-28T09:50:44.531Z,97693.79
2018-04-28T09:53:12.186Z,97688.33
2018-04-28T09:55:39.776Z,97680.83
2018-04-28T09:58:07.390Z,97680.96
2018-04-28T10:03:41.265Z,97681.91
2018-04-28T10:06:08.854Z,97684.31
2018-04-28T10:08:36.685Z,97678.66
2018-04-28T10:11:04.270Z,97682.24
2018-04-28T10:13:31.854Z,97676.04
2018-04-28T10:15:59.465Z,97674.91
2018-04-28T10:18:27.064Z,97675.67
2018-04-28T10:20:54.791Z,97672.14
2018-04-28T10:23:22.469Z,97678.45
2018-04-28T10:25:50.055Z,97671.16
2018-04-28T10:28:18.461Z,97668.17
2018-04-28T10:30:46.061Z,97663.64
2018-04-28T10:33:13.703Z,97661.91
2018-04-28T10:35:41.318Z,97652.81
2018-04-28T10:38:08.904Z,97647.23
2018-04-28T10:40:36.524Z,97649.19
2018-04-28T10:43:04.110Z,97658.48
2018-04-28T10:45:32.039Z,97660.56
2018-04-28T10:47:59.632Z,97653.58
2018-04-28T10:50:27.216Z,97649.53
2018-04-28T10:52:54.827Z,97644.63
2018-04-28T10:55:22.421Z,97641.73
2018-04-28T10:57:50.032Z,97641.73
2018-04-28T11:00:17.621Z,97642.45
2018-04-28T11:02:45.239Z,97635.81
2018-04-28T11:05:12.854Z,97631.52
2018-04-28T11:07:40.448Z,97630.13
2018-04-28T11:10:08.066Z,97625.97
2018-04-28T11:12:35.671Z,97620.44
2018-04-28T11:15:03.290Z,97617.27
2018-04-28T11:17:30.894Z,97616.25
2018-04-28T11:19:58.548Z,97617.89
2018-04-28T11:22:26.118Z,97606.33
2018-04-28T11:24:53.716Z,97599.89
2018-04-28T11:27:21.337Z,97599.27
2018-04-28T11:29:48.940Z,97601.03
2018-04-28T11:32:16.524Z,97600.51
2018-04-28T11:34:44.135Z,97589.81
2018-04-28T11:37:11.724Z,97589.77
2018-04-28T11:39:39.334Z,97584.60
2018-04-28T11:42:06.925Z,97588.61
2018-04-28T11:44:34.519Z,97582.23
2018-04-28T11:47:02.132Z,97578.45
2018-04-28T11:49:29.736Z,97578.10
2018-04-28T11:51:57.350Z,97574.64
2018-04-28T11:54:24.939Z,97569.95
2018-04-28T11:56:52.542Z,97562.35
2018-04-28T11:59:20.181Z,97561.19
2018-04-28T12:01:47.774Z,97550.45
2018-04-28T12:04:15.399Z,97552.15
2018-04-28T12:06:42.991Z,97547.13
2018-04-28T12:09:10.597Z,97547.71
2018-04-28T12:11:38.205Z,97542.45
2018-04-28T12:14:05.794Z,97542.19
2018-04-28T12:16:33.411Z,97531.64
2018-04-28T12:19:01.005Z,97541.29
2018-04-28T12:21:28.622Z,97539.52
2018-04-28T12:23:56.228Z,97531.83
2018-04-28T12:26:23.834Z,97534.62
2018-04-28T12:28:51.440Z,97530.99
2018-04-28T12:31:19.051Z,97530.79
2018-04-28T12:33:46.645Z,97529.75
2018-04-28T12:36:14.260Z,97529.22
2018-04-28T12:38:41.847Z,97525.91
2018-04-28T12:41:09.459Z,97526.00
2018-04-28T12:43:37.051Z,97514.01
2018-04-28T12:46:04.848Z,97517.70
2018-04-28T12:48:32.450Z,97515.81
2018-04-28T12:51:00.042Z,97509.35
2018-04-28T12:53:27.677Z,97497.15
2018-04-28T12:55:55.269Z,97505.75
2018-04-28T12:58:23.052Z,97505.37
2018-04-28T13:00:50.647Z,97501.79
2018-04-28T13:03:18.234Z,97496.62
2018-04-28T13:05:45.855Z,97493.98
2018-04-28T13:08:13.441Z,97491.04
2018-04-28T13:10:41.263Z,97490.62
2018-04-28T13:13:08.855Z,97488.82
2018-04-28T13:15:36.506Z,97489.05
2018-04-28T13:18:04.207Z,97487.14
2018-04-28T13:20:31.846Z,97480.20
2018-04-28T13:22:59.896Z,97473.91
2018-04-28T13:25:27.517Z,97473.16
2018-04-28T13:27:55.113Z,97470.31
2018-04-28T13:30:23.185Z,97480.06
2018-04-28T13:32:50.773Z,97465.42
2018-04-28T13:35:18.475Z,97466.89
2018-04-28T13:37:46.067Z,97460.08
2018-04-28T13:40:15.570Z,97463.28
2018-04-28T13:42:43.191Z,97452.82
2018-04-28T13:45:10.796Z,97452.70
2018-04-28T13:47:38.989Z,97450.84
2018-04-28T13:50:06.591Z,97448.45
2018-04-28T13:52:34.178Z,97448.01
2018-04-28T13:55:01.793Z,97440.59
2018-04-28T13:57:29.422Z,97447.42
2018-04-28T13:59:57.387Z,97440.73
2018-04-28T14:02:24.983Z,97442.13
2018-04-28T14:04:52.579Z,97438.97
2018-04-28T14:07:20.235Z,97434.04
2018-04-28T14:09:47.832Z,97432.27
2018-04-28T14:12:15.802Z,97421.53
2018-04-28T14:14:43.390Z,97422.36
2018-04-28T14:17:11.004Z,97423.45
2018-04-28T14:19:38.623Z,97419.12
2018-04-28T14:22:06.210Z,97412.63
2018-04-28T14:24:34.310Z,97420.88
2018-04-28T14:27:01.947Z,97413.41
2018-04-28T14:29:29.538Z,97421.25
2018-04-28T14:31:57.205Z,97412.83
2018-04-28T14:34:24.908Z,97413.33
2018-04-28T14:36:52.682Z,97402.92
2018-04-28T14:39:20.269Z,97408.72
2018-04-28T14:41:47.858Z,97402.07
2018-04-28T14:44:15.568Z,97408.52
2018-04-28T14:46:43.167Z,97399.72
2018-04-28T14:49:10.790Z,97397.19
2018-04-28T14:51:38.380Z,97401.09
2018-04-28T14:54:05.981Z,97400.19
2018-04-28T14:56:33.600Z,97395.37
2018-04-28T14:59:01.200Z,97393.58
2018-04-28T15:01:29.152Z,97386.94
2018-04-28T15:03:56.749Z,97391.08
2018-04-28T15:06:24.365Z,97391.71
2018-04-28T15:08:51.974Z,97392.26
2018-04-28T15:11:19.738Z,97398.29
2018-04-28T15:13:47.573Z,97387.34
2018-04-28T15:16:15.166Z,97386.94
2018-04-28T15:18:42.751Z,97388.28
2018-04-28T15:21:10.373Z,97383.71
2018-04-28T15:23:38.057Z,97386.91
2018-04-28T15:26:05.725Z,97376.48
2018-04-28T15:28:33.355Z,97372.75
2018-04-28T15:31:00.967Z,97375.11
2018-04-28T15:33:28.775Z,97378.19
2018-04-28T15:35:56.384Z,97376.45
2018-04-28T15:38:24.183Z,97373.91
2018-04-28T15:40:51.802Z,97378.02
2018-04-28T15:43:19.462Z,97378.22
2018-04-28T15:45:47.079Z,97378.61
2018-04-28T15:48:14.678Z,97368.97
2018-04-28T15:50:42.591Z,97370.34
2018-04-28T15:53:10.276Z,97360.56
2018-04-28T15:55:37.866Z,97369.56
2018-04-28T15:58:05.492Z,97362.66
2018-04-28T16:00:33.091Z,97362.80
2018-04-28T16:03:00.706Z,97364.29
2018-04-28T16:05:28.299Z,97356.44
2018-04-28T16:07:56.001Z,97355.86
2018-04-28T16:10:23.635Z,97353.73
2018-04-28T16:12:51.244Z,97351.58
2018-04-28T16:15:19.048Z,97355.89
2018-04-28T16:17:46.646Z,97354.32
2018-04-28T16:20:14.295Z,97350.41
2018-04-28T16:22:41.915Z,97349.55
2018-04-28T16:25:09.529Z,97363.02
2018-04-28T16:27:37.125Z,97361.88
2018-04-28T16:30:04.739Z,97359.25
2018-04-28T16:32:32.345Z,97349.27
2018-04-28T16:34:59.968Z,97349.27
2018-04-28T16:37:27.558Z,97353.81
2018-04-28T16:39:55.179Z,97352.74
2018-04-28T16:42:22.774Z,97347.50
2018-04-28T16:44:50.405Z,97348.09
2018-04-28T16:47:18.004Z,97345.38
2018-04-28T16:49:45.619Z,97332.88
2018-04-28T16:52:13.216Z,97333.11
2018-04-28T16:54:40.839Z,97335.39
2018-04-28T16:57:08.433Z,97328.41
2018-04-28T16:59:36.441Z,97330.41
2018-04-28T17:02:04.112Z,97329.96
2018-04-28T17:04:31.703Z,97329.66
2018-04-28T17:06:59.320Z,97326.19
2018-04-28T17:09:26.913Z,97324.00
2018-04-28T17:11:54.526Z,97323.02
2018-04-28T17:14:22.128Z,97326.19
2018-04-28T17:16:49.792Z,97327.56
2018-04-28T17:19:17.356Z,97323.39
2018-04-28T17:21:44.987Z,97325.17
2018-04-28T17:24:12.584Z,97333.71
2018-04-28T17:26:40.315Z,97334.05
2018-04-28T17:29:07.908Z,97336.48
2018-04-28T17:31:35.518Z,97337.25
2018-04-28T17:34:03.122Z,97336.72
2018-04-28T17:36:30.727Z,97345.64
2018-04-28T17:38:58.340Z,97340.34
2018-04-28T17:41:25.990Z,97340.11
2018-04-28T17:43:53.619Z,97345.61
2018-04-28T17:46:21.217Z,97354.40
2018-04-28T17:48:48.813Z,97358.44
2018-04-28T17:51:16.470Z,97355.52
2018-04-28T17:53:44.076Z,97353.94
2018-04-28T17:56:11.723Z,97360.91
2018-04-28T17:58:39.324Z,97365.03
2018-04-28T18:01:07.136Z,97358.27
2018-04-28T18:03:34.721Z,97362.88
2018-04-28T18:06:02.337Z,97359.25
2018-04-28T18:08:29.967Z,97359.95
2018-04-28T18:10:57.558Z,97374.42
2018-04-28T18:13:25.180Z,97375.50
2018-04-28T18:15:52.780Z,97377.23
2018-04-28T18:18:20.612Z,97383.41
2018-04-28T18:20:48.206Z,97390.67
2018-04-28T18:23:15.797Z,97383.33
2018-04-28T18:25:43.427Z,97390.02
2018-04-28T18:28:11.023Z,97391.49
2018-04-28T18:30:38.640Z,97390.25
2018-04-28T18:33:06.234Z,97390.48
2018-04-28T18:35:34.249Z,97392.22
2018-04-28T18:38:01.844Z,97395.34
2018-04-28T18:40:29.435Z,97396.54
2018-04-28T18:42:57.126Z,97397.82
2018-04-28T18:45:24.804Z,97401.13
2018-04-28T18:47:52.422Z,97398.66
2018-04-28T18:50:20.033Z,97403.86
2018-04-28T18:52:47.896Z,97399.55
2018-04-28T18:55:15.484Z,97404.83
2018-04-28T18:57:43.076Z,97400.11
2018-04-28T19:00:10.687Z,97404.86
2018-04-28T19:02:38.284Z,97410.01
2018-04-28T19:05:05.907Z,97405.90
2018-04-28T19:07:33.512Z,97403.34
2018-04-28T19:10:01.153Z,97404.93
2018-04-28T19:12:28.747Z,97405.21
2018-04-28T19:14:56.387Z,97404.55
2018-04-28T19:17:24.002Z,97406.89
2018-04-28T19:19:51.599Z,97407.53
2018-04-28T19:22:19.366Z,97416.08
2018-04-28T19:24:46.833Z,97416.36
2018-04-28T19:27:14.424Z,97417.97
2018-04-28T19:29:42.346Z,97417.80
2018-04-28T19:32:10.081Z,97421.70
2018-04-28T19:34:37.949Z,97421.73
2018-04-28T19:37:05.546Z,97421.62
2018-04-28T19:39:33.138Z,97418.38
2018-04-28T19:42:01.125Z,97409.25
2018-04-28T19:44:28.737Z,97410.31
2018-04-28T19:46:56.902Z,97408.31
2018-04-28T19:49:24.508Z,97400.70
2018-04-28T19:51:52.634Z,97402.95
2018-04-28T19:54:20.295Z,97407.49
2018-04-28T19:56:47.846Z,97397.43
2018-04-28T19:59:15.461Z,97401.31
2018-04-28T20:01:43.074Z,97400.80
2018-04-28T20:04:10.733Z,97398.77
2018-04-28T20:06:38.403Z,97391.64
2018-04-28T20:09:06.350Z,97389.13
2018-04-28T20:11:33.964Z,97391.09
2018-04-28T20:14:01.559Z,97393.26
2018-04-28T20:16:29.199Z,97394.80
2018-04-28T20:18:56.807Z,97399.32
2018-04-28T20:21:24.427Z,97395.81
2018-04-28T20:24:03.773Z,97390.93
2018-04-28T20:26:31.383Z,97398.75
2018-04-28T20:28:58.974Z,97391.08
2018-04-28T20:31:26.603Z,97391.31
2018-04-28T20:33:54.196Z,97394.84
2018-04-28T20:36:21.803Z,97385.04
2018-04-28T20:38:49.461Z,97381.95
2018-04-28T20:41:17.230Z,97378.52
2018-04-28T20:43:44.837Z,97368.88
2018-04-28T20:46:12.446Z,97367.52
2018-04-28T20:48:40.060Z,97367.85
2018-04-28T20:51:07.647Z,97370.91
2018-04-28T20:53:35.273Z,97368.61
2018-04-28T20:56:02.871Z,97367.53
2018-04-28T20:58:30.497Z,97367.80
2018-04-28T21:00:58.099Z,97368.91
2018-04-28T21:03:25.736Z,97368.24
2018-04-28T21:05:53.338Z,97363.94
2018-04-28T21:08:21.254Z,97364.52
2018-04-28T21:10:48.875Z,97355.94
2018-04-28T21:13:16.467Z,97350.03
2018-04-28T21:15:44.078Z,97346.91
2018-04-28T21:18:11.674Z,97351.90
2018-04-28T21:20:39.312Z,97365.23
2018-04-28T21:23:06.902Z,97364.58
2018-04-28T21:25:34.941Z,97352.38
2018-04-28T21:28:02.534Z,97355.23
2018-04-28T21:30:30.126Z,97359.31
2018-04-28T21:32:57.726Z,97359.14
2018-04-28T21:35:25.330Z,97351.98
2018-04-28T21:37:52.947Z,97349.29
2018-04-28T21:40:20.548Z,97346.81
2018-04-28T21:42:48.484Z,97344.59
2018-04-28T21:45:16.070Z,97338.86
2018-04-28T21:47:43.659Z,97338.89
2018-04-28T21:50:11.271Z,97343.16
2018-04-28T21:52:38.862Z,97345.34
2018-04-28T21:55:06.498Z,97346.13
2018-04-28T21:57:34.101Z,97342.77
2018-04-28T22:00:01.723Z,97341.84
2018-04-28T22:02:29.328Z,97341.23
2018-04-28T22:04:57.043Z,97343.20
2018-04-28T22:07:24.634Z,97339.50
2018-04-28T22:09:52.254Z,97343.77
2018-04-28T22:12:19.849Z,97347.46
2018-04-28T22:14:47.470Z,97352.94
2018-04-28T22:17:15.058Z,97354.00
2018-04-28T22:19:44.046Z,97359.20
2018-04-28T22:22:11.686Z,97351.89
2018-04-28T22:24:39.289Z,97355.26
2018-04-28T22:27:06.913Z,97348.27
2018-04-28T22:29:34.507Z,97351.27
2018-04-28T22:32:02.122Z,97345.83
2018-04-28T22:34:29.714Z,97344.64
2018-04-28T22:36:57.351Z,97350.01
2018-04-28T22:39:24.940Z,97346.77
2018-04-28T22:41:52.561Z,97346.76
2018-04-28T22:44:20.191Z,97347.17
2018-04-28T22:46:47.787Z,97345.73
2018-04-28T22:49:15.400Z,97345.30
2018-04-28T22:51:42.986Z,97346.64
2018-04-28T22:54:10.764Z,97343.92
2018-04-28T22:56:38.366Z,97345.20
2018-04-28T22:59:05.974Z,97344.48
2018-04-28T23:01:33.586Z,97341.94
2018-04-28T23:04:01.175Z,97349.19
2018-04-28T23:06:28.794Z,97349.48
2018-04-28T23:08:56.386Z,97342.64
2018-04-28T23:11:24.031Z,97345.75
2018-04-28T23:13:51.751Z,97339.56
2018-04-28T23:16:19.450Z,97336.28
2018-04-28T23:18:47.062Z,97338.84
2018-04-28T23:21:14.659Z,97341.45
2018-04-28T23:23:42.280Z,97340.93
2018-04-28T23:26:09.874Z,97342.70
2018-04-28T23:28:37.505Z,97344.88
2018-04-28T23:31:05.130Z,97352.02
2018-04-28T23:33:32.729Z,97347.15
2018-04-28T23:36:00.359Z,97348.02
2018-04-28T23:38:27.956Z,97354.50
2018-04-28T23:40:55.583Z,97346.45
2018-04-28T23:43:23.170Z,97342.11
2018-04-28T23:45:50.772Z,97342.82
2018-04-28T23:48:18.465Z,97345.41
2018-04-28T23:50:46.068Z,97339.96
2018-04-28T23:53:13.783Z,97337.20
2018-04-28T23:55:41.381Z,97336.19
2018-04-28T23:58:08.975Z,97332.69
